ETD14X OEJN-OMAA
Flight info
| Callsign | ETD14X |
|---|---|
| Flight time | N/A |
| Altitude | 39000 |
| Route | EGREP T532 KODIS Y214 RAPMA DCT KUVSO DCT RIBOT M550 GOLGU M318 ATUDO |
| Aircraft | A35K/H-SDE2E3GHIJ3J4J5LM1ORWXY/LB1D1 |
Departure
| Time | N/A |
|---|---|
| Airport | King Abdulaziz International Airport (OEJN) |
Arrival
| Time | 2026-05-06 11:42 |
|---|---|
| Airport | Zayed International Airport (OMAA) |
| Time | Latitude | Longitude | Altitude | Speed | Heading |
|---|---|---|---|---|---|
| 2026-05-06 11:10 | 23.17628 | 52.48053 | 38841 ft | 525 kts | 87° |
| 2026-05-06 11:10 | 23.19014 | 52.54432 | 38848 ft | 524 kts | 65° |
| 2026-05-06 11:11 | 23.22479 | 52.61406 | 38852 ft | 525 kts | 59° |
| 2026-05-06 11:11 | 23.26150 | 52.68281 | 38849 ft | 526 kts | 59° |
| 2026-05-06 11:12 | 23.29820 | 52.75170 | 38850 ft | 526 kts | 59° |
| 2026-05-06 11:12 | 23.33422 | 52.82098 | 38855 ft | 526 kts | 60° |
| 2026-05-06 11:13 | 23.36985 | 52.89041 | 38973 ft | 526 kts | 60° |
| 2026-05-06 11:13 | 23.40544 | 52.95992 | 38992 ft | 525 kts | 60° |
| 2026-05-06 11:14 | 23.44169 | 53.02892 | 38990 ft | 525 kts | 58° |
| 2026-05-06 11:14 | 23.47867 | 53.09755 | 38995 ft | 525 kts | 58° |
| 2026-05-06 11:15 | 23.51537 | 53.16588 | 38993 ft | 525 kts | 59° |
| 2026-05-06 11:15 | 23.55230 | 53.23505 | 38995 ft | 525 kts | 59° |
| 2026-05-06 11:16 | 23.58895 | 53.30400 | 38993 ft | 525 kts | 59° |
| 2026-05-06 11:16 | 23.62555 | 53.37293 | 38992 ft | 525 kts | 59° |
| 2026-05-06 11:17 | 23.66189 | 53.44149 | 38993 ft | 525 kts | 59° |
| 2026-05-06 11:17 | 23.69847 | 53.51055 | 38993 ft | 525 kts | 59° |
| 2026-05-06 11:18 | 23.73504 | 53.57935 | 38880 ft | 519 kts | 59° |
| 2026-05-06 11:18 | 23.75319 | 53.61337 | 38708 ft | 521 kts | 58° |
| 2026-05-06 11:18 | 23.77151 | 53.64771 | 38375 ft | 522 kts | 58° |
| 2026-05-06 11:18 | 23.78976 | 53.68199 | 37636 ft | 521 kts | 58° |
| 2026-05-06 11:19 | 23.80798 | 53.71627 | 36794 ft | 523 kts | 58° |
| 2026-05-06 11:19 | 23.82626 | 53.75074 | 35949 ft | 526 kts | 58° |
| 2026-05-06 11:19 | 23.84463 | 53.78545 | 35122 ft | 528 kts | 58° |
| 2026-05-06 11:19 | 23.86305 | 53.82031 | 34313 ft | 531 kts | 58° |
| 2026-05-06 11:20 | 23.88153 | 53.85535 | 33474 ft | 534 kts | 58° |
| 2026-05-06 11:20 | 23.90009 | 53.89058 | 32586 ft | 535 kts | 58° |
| 2026-05-06 11:20 | 23.91862 | 53.92580 | 31782 ft | 535 kts | 59° |
| 2026-05-06 11:20 | 23.93714 | 53.96104 | 30989 ft | 534 kts | 59° |
| 2026-05-06 11:21 | 23.95542 | 53.99583 | 30190 ft | 534 kts | 59° |
| 2026-05-06 11:21 | 23.97397 | 54.03115 | 29362 ft | 533 kts | 59° |
| 2026-05-06 11:21 | 23.99240 | 54.06629 | 28564 ft | 529 kts | 59° |
| 2026-05-06 11:21 | 24.01049 | 54.10095 | 27879 ft | 524 kts | 60° |
| 2026-05-06 11:22 | 24.02838 | 54.13559 | 27232 ft | 518 kts | 60° |
| 2026-05-06 11:22 | 24.04593 | 54.16977 | 26538 ft | 513 kts | 60° |
| 2026-05-06 11:22 | 24.06349 | 54.20400 | 25613 ft | 514 kts | 60° |
| 2026-05-06 11:22 | 24.08092 | 54.23801 | 24873 ft | 511 kts | 60° |
| 2026-05-06 11:23 | 24.09824 | 54.27182 | 24236 ft | 505 kts | 60° |
| 2026-05-06 11:23 | 24.11530 | 54.30510 | 23614 ft | 499 kts | 60° |
| 2026-05-06 11:23 | 24.13221 | 54.33804 | 22924 ft | 493 kts | 60° |
| 2026-05-06 11:23 | 24.14870 | 54.37013 | 22187 ft | 487 kts | 60° |
| 2026-05-06 11:24 | 24.16522 | 54.40229 | 21452 ft | 481 kts | 60° |
| 2026-05-06 11:24 | 24.18156 | 54.43407 | 20765 ft | 474 kts | 60° |
| 2026-05-06 11:24 | 24.19759 | 54.46528 | 20175 ft | 466 kts | 60° |
| 2026-05-06 11:24 | 24.21334 | 54.49591 | 19616 ft | 457 kts | 60° |
| 2026-05-06 11:25 | 24.22907 | 54.52597 | 19044 ft | 448 kts | 58° |
| 2026-05-06 11:25 | 24.24904 | 54.55164 | 18532 ft | 441 kts | 42° |
| 2026-05-06 11:25 | 24.27351 | 54.57157 | 17987 ft | 434 kts | 34° |
| 2026-05-06 11:25 | 24.29963 | 54.58675 | 17380 ft | 427 kts | 26° |
| 2026-05-06 11:26 | 24.32645 | 54.60015 | 16794 ft | 420 kts | 25° |
| 2026-05-06 11:26 | 24.35294 | 54.61324 | 16215 ft | 414 kts | 25° |
| 2026-05-06 11:26 | 24.37891 | 54.62625 | 15636 ft | 407 kts | 26° |
| 2026-05-06 11:26 | 24.40450 | 54.63922 | 14955 ft | 404 kts | 26° |
| 2026-05-06 11:27 | 24.43013 | 54.65234 | 13952 ft | 409 kts | 26° |
| 2026-05-06 11:27 | 24.45608 | 54.66574 | 13004 ft | 412 kts | 26° |
| 2026-05-06 11:27 | 24.48220 | 54.67862 | 12141 ft | 410 kts | 20° |
| 2026-05-06 11:27 | 24.50963 | 54.68470 | 11380 ft | 407 kts | 4° |
| 2026-05-06 11:28 | 24.53774 | 54.68200 | 10586 ft | 405 kts | 347° |
| 2026-05-06 11:28 | 24.56383 | 54.67054 | 9803 ft | 404 kts | 330° |
| 2026-05-06 11:28 | 24.58563 | 54.65128 | 8982 ft | 403 kts | 313° |
| 2026-05-06 11:28 | 24.60072 | 54.62585 | 8516 ft | 392 kts | 294° |
| 2026-05-06 11:29 | 24.60874 | 54.59793 | 8248 ft | 375 kts | 285° |
| 2026-05-06 11:29 | 24.61661 | 54.57122 | 7976 ft | 359 kts | 291° |
| 2026-05-06 11:29 | 24.62666 | 54.54670 | 7750 ft | 344 kts | 297° |
| 2026-05-06 11:29 | 24.63811 | 54.52423 | 7524 ft | 329 kts | 301° |
| 2026-05-06 11:30 | 24.65017 | 54.50345 | 7317 ft | 316 kts | 304° |
| 2026-05-06 11:30 | 24.66239 | 54.48396 | 7144 ft | 303 kts | 307° |
| 2026-05-06 11:30 | 24.67432 | 54.46578 | 6987 ft | 291 kts | 308° |
| 2026-05-06 11:30 | 24.68621 | 54.44814 | 6694 ft | 284 kts | 309° |
| 2026-05-06 11:31 | 24.69806 | 54.43086 | 6362 ft | 281 kts | 309° |
| 2026-05-06 11:31 | 24.70986 | 54.41389 | 6022 ft | 277 kts | 309° |
| 2026-05-06 11:31 | 24.72156 | 54.39717 | 5667 ft | 274 kts | 309° |
| 2026-05-06 11:31 | 24.73310 | 54.38066 | 5306 ft | 270 kts | 309° |
| 2026-05-06 11:32 | 24.74395 | 54.36390 | 4963 ft | 269 kts | 303° |
| 2026-05-06 11:32 | 24.75054 | 54.34466 | 4620 ft | 270 kts | 281° |
| 2026-05-06 11:32 | 24.75007 | 54.32415 | 4270 ft | 269 kts | 257° |
| 2026-05-06 11:32 | 24.74246 | 54.30565 | 3901 ft | 265 kts | 231° |
| 2026-05-06 11:33 | 24.72804 | 54.29408 | 3553 ft | 255 kts | 196° |
| 2026-05-06 11:33 | 24.71082 | 54.29328 | 3206 ft | 246 kts | 162° |
| 2026-05-06 11:33 | 24.69682 | 54.30300 | 2864 ft | 241 kts | 128° |
| 2026-05-06 11:33 | 24.68745 | 54.31810 | 2552 ft | 237 kts | 121° |
| 2026-05-06 11:34 | 24.67902 | 54.33300 | 2514 ft | 222 kts | 122° |
| 2026-05-06 11:34 | 24.67049 | 54.34654 | 2533 ft | 206 kts | 126° |
| 2026-05-06 11:34 | 24.66225 | 54.35847 | 2553 ft | 186 kts | 127° |
| 2026-05-06 11:34 | 24.65468 | 54.36912 | 2523 ft | 167 kts | 127° |
| 2026-05-06 11:35 | 24.64766 | 54.37858 | 2521 ft | 155 kts | 128° |
| 2026-05-06 11:35 | 24.64070 | 54.38757 | 2510 ft | 155 kts | 129° |
| 2026-05-06 11:35 | 24.63352 | 54.39647 | 2481 ft | 156 kts | 130° |
| 2026-05-06 11:35 | 24.62614 | 54.40526 | 2461 ft | 156 kts | 131° |
| 2026-05-06 11:36 | 24.61914 | 54.41425 | 2424 ft | 154 kts | 119° |
| 2026-05-06 11:36 | 24.61384 | 54.42437 | 2409 ft | 152 kts | 120° |
| 2026-05-06 11:36 | 24.60814 | 54.43428 | 2386 ft | 154 kts | 123° |
| 2026-05-06 11:36 | 24.60197 | 54.44369 | 2343 ft | 154 kts | 126° |
| 2026-05-06 11:37 | 24.59547 | 54.45304 | 2331 ft | 155 kts | 127° |
| 2026-05-06 11:37 | 24.58876 | 54.46238 | 2311 ft | 155 kts | 127° |
| 2026-05-06 11:37 | 24.58214 | 54.47171 | 2287 ft | 155 kts | 127° |
| 2026-05-06 11:37 | 24.57557 | 54.48112 | 2264 ft | 154 kts | 127° |
| 2026-05-06 11:38 | 24.56916 | 54.49037 | 2251 ft | 154 kts | 127° |
| 2026-05-06 11:38 | 24.56267 | 54.49973 | 2213 ft | 154 kts | 127° |
| 2026-05-06 11:38 | 24.55609 | 54.50918 | 2193 ft | 157 kts | 129° |
| 2026-05-06 11:38 | 24.54939 | 54.51873 | 2170 ft | 159 kts | 128° |
| 2026-05-06 11:39 | 24.54258 | 54.52839 | 2159 ft | 160 kts | 129° |
| 2026-05-06 11:39 | 24.53576 | 54.53803 | 2121 ft | 160 kts | 129° |
| 2026-05-06 11:39 | 24.52893 | 54.54775 | 1963 ft | 160 kts | 128° |
| 2026-05-06 11:39 | 24.52216 | 54.55740 | 1757 ft | 159 kts | 128° |
| 2026-05-06 11:40 | 24.51540 | 54.56697 | 1579 ft | 158 kts | 129° |
| 2026-05-06 11:40 | 24.50871 | 54.57642 | 1364 ft | 157 kts | 128° |
| 2026-05-06 11:40 | 24.50204 | 54.58588 | 1186 ft | 156 kts | 129° |
| 2026-05-06 11:40 | 24.49535 | 54.59536 | 985 ft | 157 kts | 128° |
| 2026-05-06 11:41 | 24.48867 | 54.60483 | 810 ft | 158 kts | 128° |
| 2026-05-06 11:41 | 24.48180 | 54.61456 | 634 ft | 165 kts | 128° |
| 2026-05-06 11:41 | 24.47469 | 54.62464 | 408 ft | 168 kts | 126° |
| 2026-05-06 11:41 | 24.46750 | 54.63482 | 208 ft | 173 kts | 127° |
| 2026-05-06 11:42 | 24.46024 | 54.64519 | 67 ft | 155 kts | 130° |
| 2026-05-06 11:42 | 24.45534 | 54.65201 | 84 ft | 101 kts | 128° |
| 2026-05-06 11:42 | 24.45076 | 54.65608 | 88 ft | 49 kts | 159° |
| 2026-05-06 11:42 | 24.45000 | 54.65657 | 88 ft | 0 kts | 141° |
| 2026-05-06 11:44 | 24.44989 | 54.65665 | 88 ft | 4 kts | 146° |
| 2026-05-06 11:44 | 24.44953 | 54.65681 | 87 ft | 8 kts | 166° |
| 2026-05-06 11:44 | 24.44885 | 54.65653 | 88 ft | 13 kts | 215° |
| 2026-05-06 11:45 | 24.44807 | 54.65571 | 88 ft | 15 kts | 249° |
| 2026-05-06 11:45 | 24.44801 | 54.65479 | 87 ft | 12 kts | 247° |
| 2026-05-06 11:45 | 24.44733 | 54.65401 | 87 ft | 17 kts | 220° |
| 2026-05-06 11:45 | 24.44628 | 54.65313 | 86 ft | 21 kts | 218° |
| 2026-05-06 11:46 | 24.44504 | 54.65200 | 88 ft | 22 kts | 233° |
| 2026-05-06 11:46 | 24.44518 | 54.65096 | 88 ft | 12 kts | 309° |
| 2026-05-06 11:46 | 24.44577 | 54.65017 | 87 ft | 15 kts | 308° |
| 2026-05-06 11:46 | 24.44645 | 54.64922 | 87 ft | 17 kts | 308° |
| 2026-05-06 11:47 | 24.44721 | 54.64814 | 86 ft | 19 kts | 308° |
| 2026-05-06 11:47 | 24.44803 | 54.64697 | 87 ft | 20 kts | 305° |
| 2026-05-06 11:47 | 24.44852 | 54.64563 | 86 ft | 16 kts | 268° |
| 2026-05-06 11:47 | 24.44805 | 54.64485 | 86 ft | 12 kts | 247° |
| 2026-05-06 11:48 | 24.44791 | 54.64439 | 86 ft | 1 kts | 252° |
| 2026-05-06 11:48 | 24.44790 | 54.64436 | 86 ft | 0 kts | 252° |
| 2026-05-06 11:48 | 24.44789 | 54.64432 | 86 ft | 0 kts | 252° |
| 2026-05-06 11:50 | 24.50347 | 54.58386 | 1227 ft | 157 kts | 129° |
| 2026-05-06 11:50 | 24.46266 | 54.64171 | 65 ft | 173 kts | 126° |
| 2026-05-06 11:50 | 24.46346 | 54.64053 | 85 ft | 174 kts | 126° |
| 2026-05-06 11:50 | 24.45751 | 54.64893 | 70 ft | 106 kts | 128° |
| 2026-05-06 11:51 | 24.46217 | 54.64244 | 65 ft | 172 kts | 126° |
| 2026-05-06 11:51 | 24.46269 | 54.64166 | 67 ft | 173 kts | 126° |
| 2026-05-06 11:51 | 26.25561 | 50.65998 | 314 ft | 146 kts | 304° |
| 2026-05-06 11:51 | 26.26727 | 50.63998 | 21 ft | 138 kts | 302° |
| 2026-05-06 11:52 | 50.01457 | 8.48012 | 1103 ft | 165 kts | 71° |
| 2026-05-06 11:52 | 50.02900 | 8.54048 | 334 ft | 159 kts | 70° |
| 2026-05-06 11:52 | 50.03055 | 8.54710 | 353 ft | 128 kts | 70° |
| 2026-05-06 11:52 | 25.19759 | 55.46424 | 1440 ft | 144 kts | 307° |